createdAt,value
2023-05-19T00:03:34.037Z,99738.28
2023-05-19T00:08:38.464Z,99726.97
2023-05-19T00:13:40.580Z,99728.91
2023-05-19T00:18:43.364Z,99723.94
2023-05-19T00:23:45.711Z,99736.34
2023-05-19T00:28:47.457Z,99725.63
2023-05-19T00:33:49.234Z,99721.19
2023-05-19T00:38:51.956Z,99729.19
2023-05-19T00:43:53.828Z,99733.06
2023-05-19T00:48:55.542Z,99722.91
2023-05-19T00:53:57.905Z,99719.56
2023-05-19T00:59:00.974Z,99717.66
2023-05-19T01:04:04.112Z,99709.69
2023-05-19T01:09:06.194Z,99719.88
2023-05-19T01:14:09.734Z,99721.81
2023-05-19T01:19:21.043Z,99716.63
2023-05-19T01:24:30.552Z,99704.81
2023-05-19T01:29:42.741Z,99716.38
2023-05-19T01:34:46.620Z,99704.25
2023-05-19T01:39:48.674Z,99705.66
2023-05-19T01:44:52.071Z,99703.19
2023-05-19T01:49:54.524Z,99709.78
2023-05-19T01:54:56.277Z,99704.59
2023-05-19T02:00:13.393Z,99702.97
2023-05-19T02:05:29.527Z,99699.69
2023-05-19T02:10:37.589Z,99701.88
2023-05-19T02:15:42.395Z,99696.13
2023-05-19T02:20:44.331Z,99698.59
2023-05-19T02:25:46.191Z,99693.09
2023-05-19T02:30:48.233Z,99686.47
2023-05-19T02:35:50.467Z,99677.69
2023-05-19T02:40:55.746Z,99677.41
2023-05-19T02:45:57.669Z,99677.97
2023-05-19T02:51:01.372Z,99681.56
2023-05-19T02:56:03.693Z,99679.34
2023-05-19T03:01:05.534Z,99674.94
2023-05-19T03:06:10.654Z,99683.19
2023-05-19T03:11:12.510Z,99684.56
2023-05-19T03:16:14.594Z,99683.72
2023-05-19T03:21:16.512Z,99680.97
2023-05-19T03:26:18.299Z,99692.50
2023-05-19T03:31:20.178Z,99689.19
2023-05-19T03:36:22.684Z,99699.06
2023-05-19T03:41:24.741Z,99705.88
2023-05-19T03:46:28.441Z,99703.59
2023-05-19T03:51:48.795Z,99692.53
2023-05-19T03:57:05.210Z,99697.16
2023-05-19T04:02:08.393Z,99704.06
2023-05-19T04:07:10.403Z,99702.81
2023-05-19T04:12:12.150Z,99708.56
2023-05-19T04:17:14.049Z,99717.28
2023-05-19T04:22:15.961Z,99710.00
2023-05-19T04:27:18.277Z,99710.31
2023-05-19T04:32:20.309Z,99713.06
2023-05-19T04:37:22.896Z,99717.81
2023-05-19T04:42:28.794Z,99723.13
2023-05-19T04:47:30.764Z,99714.69
2023-05-19T04:52:33.988Z,99707.63
2023-05-19T04:57:37.829Z,99713.06
2023-05-19T05:02:40.245Z,99719.91
2023-05-19T05:07:43.172Z,99719.44
2023-05-19T05:12:46.688Z,99716.25
2023-05-19T05:17:48.871Z,99712.78
2023-05-19T05:22:51.327Z,99713.88
2023-05-19T05:27:54.286Z,99717.34
2023-05-19T05:32:56.640Z,99721.63
2023-05-19T05:38:09.068Z,99723.22
2023-05-19T05:43:12.196Z,99720.91
2023-05-19T05:48:21.263Z,99732.75
2023-05-19T05:53:25.389Z,99727.88
2023-05-19T05:58:28.958Z,99725.22
2023-05-19T06:03:32.083Z,99721.88
2023-05-19T06:08:41.579Z,99729.75
2023-05-19T06:13:43.650Z,99740.75
2023-05-19T06:18:51.469Z,99738.47
2023-05-19T06:23:54.352Z,99744.94
2023-05-19T06:28:56.529Z,99747.06
2023-05-19T06:34:01.506Z,99730.94
2023-05-19T06:39:06.307Z,99744.25
2023-05-19T06:44:11.305Z,99754.53
2023-05-19T06:49:13.134Z,99761.00
2023-05-19T06:54:19.378Z,99766.56
2023-05-19T06:59:26.005Z,99747.75
2023-05-19T07:04:28.046Z,99759.84
2023-05-19T07:09:31.517Z,99745.09
2023-05-19T07:14:33.492Z,99753.25
2023-05-19T07:19:39.180Z,99748.66
2023-05-19T07:24:42.061Z,99753.41
2023-05-19T07:29:44.168Z,99741.22
2023-05-19T07:34:46.026Z,99739.00
2023-05-19T07:39:48.013Z,99735.59
2023-05-19T07:44:52.537Z,99736.75
2023-05-19T07:49:55.929Z,99727.63
2023-05-19T07:54:59.161Z,99741.94
2023-05-19T08:00:01.229Z,99742.66
2023-05-19T08:05:13.528Z,99749.72
2023-05-19T08:10:15.415Z,99753.22
2023-05-19T08:15:17.224Z,99746.75
2023-05-19T08:20:23.012Z,99748.31
2023-05-19T08:25:30.355Z,99735.84
2023-05-19T08:30:32.532Z,99734.38
2023-05-19T08:35:34.774Z,99735.91
2023-05-19T08:40:38.168Z,99729.94
2023-05-19T08:45:48.415Z,99726.41
2023-05-19T08:51:03.240Z,99720.13
2023-05-19T08:56:11.194Z,99719.56
2023-05-19T09:01:19.443Z,99719.25
2023-05-19T09:06:23.464Z,99703.09
2023-05-19T09:11:25.356Z,99710.22
2023-05-19T09:16:43.722Z,99708.91
2023-05-19T09:22:14.836Z,99707.41
2023-05-19T09:27:41.615Z,99695.91
2023-05-19T09:32:52.869Z,99689.78
2023-05-19T09:38:02.179Z,99684.53
2023-05-19T09:43:08.136Z,99678.06
2023-05-19T09:48:12.492Z,99667.22
2023-05-19T09:53:18.771Z,99669.59
2023-05-19T09:58:25.766Z,99668.22
2023-05-19T10:03:33.100Z,99672.34
2023-05-19T10:08:38.342Z,99670.44
2023-05-19T10:13:46.745Z,99660.59
2023-05-19T10:18:51.862Z,99661.69
2023-05-19T10:23:54.625Z,99661.22
2023-05-19T10:28:58.786Z,99651.38
2023-05-19T10:34:22.741Z,99649.53
2023-05-19T10:39:45.476Z,99649.38
2023-05-19T10:45:39.209Z,99646.16
2023-05-19T10:50:59.037Z,99641.16
2023-05-19T10:56:16.142Z,99637.38
2023-05-19T11:08:35.194Z,99633.34
2023-05-19T11:21:20.160Z,99610.56
2023-05-19T11:27:43.205Z,99612.69
2023-05-19T11:41:33.215Z,99615.31
2023-05-19T11:46:27.106Z,99617.44
2023-05-19T11:51:39.707Z,99610.19
2023-05-19T11:56:46.696Z,99608.50
2023-05-19T12:01:57.411Z,99607.41
2023-05-19T12:07:31.063Z,99600.59
2023-05-19T12:12:55.528Z,99590.72
2023-05-19T12:18:31.347Z,99598.91
2023-05-19T12:24:02.306Z,99601.09
2023-05-19T12:29:54.027Z,99592.97
2023-05-19T12:35:21.985Z,99581.63
2023-05-19T12:40:52.755Z,99588.91
2023-05-19T12:46:23.168Z,99583.16
2023-05-19T12:51:39.034Z,99578.44
2023-05-19T12:56:51.438Z,99575.88
2023-05-19T13:02:03.031Z,99570.09
2023-05-19T13:07:25.669Z,99568.03
2023-05-19T13:12:31.361Z,99565.50
2023-05-19T13:31:22.987Z,99541.75
2023-05-19T13:51:01.230Z,99518.50
2023-05-19T13:56:34.506Z,99503.09
2023-05-19T14:08:35.608Z,99508.28
2023-05-19T14:14:14.781Z,99513.81
2023-05-19T14:27:39.814Z,99505.22
2023-05-19T14:32:55.733Z,99500.97
2023-05-19T14:37:58.286Z,99503.47
2023-05-19T14:43:05.098Z,99504.88
2023-05-19T14:48:06.910Z,99501.38
2023-05-19T14:53:08.844Z,99497.72
2023-05-19T14:58:26.848Z,99507.44
2023-05-19T15:03:33.042Z,99503.63
2023-05-19T15:08:39.400Z,99505.69
2023-05-19T15:13:41.255Z,99495.75
2023-05-19T15:19:23.000Z,99504.16
2023-05-19T15:24:25.260Z,99514.16
2023-05-19T15:30:18.356Z,99512.88
2023-05-19T15:35:54.345Z,99507.47
2023-05-19T15:41:01.786Z,99504.16
2023-05-19T15:46:16.596Z,99505.06
2023-05-19T15:51:44.338Z,99504.94
2023-05-19T15:56:55.097Z,99500.88
2023-05-19T16:02:07.329Z,99505.63
2023-05-19T16:07:09.171Z,99500.63
2023-05-19T16:12:10.970Z,99496.53
2023-05-19T16:17:13.880Z,99503.97
2023-05-19T16:22:16.906Z,99500.47
2023-05-19T16:27:18.938Z,99494.78
2023-05-19T16:32:21.272Z,99504.00
2023-05-19T16:37:23.076Z,99507.34
2023-05-19T16:42:25.382Z,99501.81
2023-05-19T16:47:27.240Z,99494.09
2023-05-19T16:52:31.950Z,99486.69
2023-05-19T16:57:33.779Z,99482.94
2023-05-19T17:02:35.607Z,99494.84
2023-05-19T17:07:39.369Z,99495.94
2023-05-19T17:12:41.178Z,99496.28
2023-05-19T17:17:45.295Z,99488.44
2023-05-19T17:22:47.109Z,99491.84
2023-05-19T17:27:48.994Z,99498.00
2023-05-19T17:32:51.122Z,99490.69
2023-05-19T17:37:53.042Z,99490.28
2023-05-19T17:42:54.882Z,99496.88
2023-05-19T17:47:56.729Z,99500.88
2023-05-19T17:52:58.941Z,99502.53
2023-05-19T17:58:01.290Z,99509.34
2023-05-19T18:03:04.940Z,99508.78
2023-05-19T18:08:09.427Z,99509.53
2023-05-19T18:13:14.059Z,99511.00
2023-05-19T18:18:17.408Z,99505.50
2023-05-19T18:23:20.553Z,99501.22
2023-05-19T18:28:24.045Z,99499.22
2023-05-19T18:33:27.305Z,99503.53
2023-05-19T18:38:30.354Z,99509.56
2023-05-19T18:43:32.510Z,99518.00
2023-05-19T18:48:34.557Z,99517.06
2023-05-19T18:53:37.093Z,99528.34
2023-05-19T18:58:38.918Z,99524.97
2023-05-19T19:03:41.960Z,99528.66
2023-05-19T19:08:44.436Z,99537.44
2023-05-19T19:13:46.370Z,99527.63
2023-05-19T19:18:48.253Z,99534.03
2023-05-19T19:23:54.774Z,99539.59
2023-05-19T19:28:56.797Z,99543.03
2023-05-19T19:34:03.098Z,99542.06
2023-05-19T19:39:05.127Z,99555.63
2023-05-19T19:44:08.018Z,99562.66
2023-05-19T19:49:09.833Z,99564.13
2023-05-19T19:54:11.630Z,99566.72
2023-05-19T19:59:13.487Z,99567.84
2023-05-19T20:04:15.637Z,99575.31
2023-05-19T20:09:19.791Z,99576.91
2023-05-19T20:14:21.847Z,99577.19
2023-05-19T20:19:25.611Z,99582.03
2023-05-19T20:24:27.508Z,99587.22
2023-05-19T20:29:29.394Z,99575.25
2023-05-19T20:34:31.419Z,99577.47
2023-05-19T20:39:34.425Z,99577.25
2023-05-19T20:44:36.362Z,99574.94
2023-05-19T20:49:40.506Z,99570.78
2023-05-19T20:54:42.662Z,99573.72
2023-05-19T20:59:44.635Z,99569.78
2023-05-19T21:04:46.484Z,99559.94
2023-05-19T21:09:50.441Z,99557.22
2023-05-19T21:14:52.418Z,99552.69
2023-05-19T21:19:58.018Z,99548.53
2023-05-19T21:25:00.032Z,99562.34
2023-05-19T21:30:02.048Z,99572.31
2023-05-19T21:35:04.919Z,99571.22
2023-05-19T21:40:08.059Z,99575.34
2023-05-19T21:45:10.325Z,99566.63
2023-05-19T21:50:15.689Z,99567.47
2023-05-19T21:55:17.518Z,99576.09
2023-05-19T22:00:19.353Z,99573.84
2023-05-19T22:05:21.272Z,99583.66
2023-05-19T22:10:23.317Z,99583.25
2023-05-19T22:15:25.150Z,99579.88
2023-05-19T22:20:26.919Z,99578.47
2023-05-19T22:25:28.803Z,99575.50
2023-05-19T22:30:30.836Z,99574.84
2023-05-19T22:35:34.025Z,99587.78
2023-05-19T22:40:36.248Z,99585.41
2023-05-19T22:45:38.560Z,99581.31
2023-05-19T22:50:40.708Z,99574.66
2023-05-19T22:55:42.629Z,99565.31
2023-05-19T23:00:44.459Z,99561.63
2023-05-19T23:05:46.518Z,99557.41
2023-05-19T23:10:48.252Z,99558.66
2023-05-19T23:15:50.014Z,99557.31
2023-05-19T23:20:51.833Z,99544.69
2023-05-19T23:25:53.586Z,99539.78
2023-05-19T23:30:56.059Z,99557.91
2023-05-19T23:35:59.713Z,99544.78
2023-05-19T23:41:01.747Z,99540.50
2023-05-19T23:46:03.642Z,99548.09
2023-05-19T23:51:05.649Z,99550.44
2023-05-19T23:56:07.785Z,99548.50
